createdAt,value
2023-02-28T00:03:23.869Z,103065.75
2023-02-28T00:08:29.402Z,103059.00
2023-02-28T00:13:33.911Z,103053.03
2023-02-28T00:18:38.602Z,103052.28
2023-02-28T00:23:44.726Z,103050.59
2023-02-28T00:28:49.429Z,103053.19
2023-02-28T00:33:53.714Z,103054.16
2023-02-28T00:38:59.994Z,103049.78
2023-02-28T00:44:05.912Z,103046.47
2023-02-28T00:49:09.977Z,103044.81
2023-02-28T00:54:15.447Z,103036.31
2023-02-28T00:59:20.484Z,103046.63
2023-02-28T01:04:24.792Z,103045.94
2023-02-28T01:09:30.431Z,103052.81
2023-02-28T01:14:37.232Z,103062.25
2023-02-28T01:19:41.414Z,103068.31
2023-02-28T01:24:48.968Z,103062.44
2023-02-28T01:29:53.671Z,103071.00
2023-02-28T01:34:57.791Z,103067.63
2023-02-28T01:40:03.239Z,103066.75
2023-02-28T01:45:24.794Z,103071.03
2023-02-28T01:50:34.080Z,103070.94
2023-02-28T01:55:40.412Z,103061.53
2023-02-28T02:00:44.676Z,103056.34
2023-02-28T02:05:49.167Z,103049.34
2023-02-28T02:10:58.566Z,103031.31
2023-02-28T02:16:12.826Z,103030.44
2023-02-28T02:22:09.219Z,103048.28
2023-02-28T02:27:50.595Z,103032.75
2023-02-28T02:33:21.817Z,103036.03
2023-02-28T02:38:36.049Z,103027.38
2023-02-28T02:43:50.265Z,103023.97
2023-02-28T02:48:57.957Z,103028.09
2023-02-28T02:54:10.238Z,103035.84
2023-02-28T02:59:25.237Z,103027.31
2023-02-28T03:04:37.393Z,103028.91
2023-02-28T03:09:42.956Z,103034.81
2023-02-28T03:15:06.025Z,103034.81
2023-02-28T03:20:20.445Z,103038.97
2023-02-28T03:25:34.844Z,103026.94
2023-02-28T03:30:46.938Z,103034.63
2023-02-28T03:36:08.404Z,103027.69
2023-02-28T03:41:19.180Z,103022.47
2023-02-28T03:46:27.579Z,103031.09
2023-02-28T03:51:33.327Z,103037.94
2023-02-28T03:56:44.765Z,103037.94
2023-02-28T04:01:51.179Z,103030.22
2023-02-28T04:07:03.658Z,103046.44
2023-02-28T04:12:10.755Z,103037.81
2023-02-28T04:17:14.916Z,103034.31
2023-02-28T04:22:23.219Z,103034.25
2023-02-28T04:27:28.790Z,103037.72
2023-02-28T04:32:33.807Z,103042.75
2023-02-28T04:37:38.032Z,103053.06
2023-02-28T04:42:43.417Z,103041.84
2023-02-28T04:47:47.723Z,103049.59
2023-02-28T04:52:52.255Z,103054.66
2023-02-28T04:57:57.724Z,103061.47
2023-02-28T05:03:01.925Z,103056.41
2023-02-28T05:08:06.538Z,103060.63
2023-02-28T05:13:14.597Z,103076.06
2023-02-28T05:18:18.563Z,103065.81
2023-02-28T05:23:24.585Z,103079.59
2023-02-28T05:28:29.925Z,103076.97
2023-02-28T05:33:33.993Z,103078.72
2023-02-28T05:38:39.031Z,103080.38
2023-02-28T05:43:44.668Z,103077.03
2023-02-28T05:48:50.317Z,103081.34
2023-02-28T05:53:54.582Z,103075.44
2023-02-28T05:59:00.000Z,103072.22
2023-02-28T06:04:06.272Z,103068.63
2023-02-28T06:09:10.258Z,103060.13
2023-02-28T06:14:18.771Z,103060.06
2023-02-28T06:19:23.372Z,103067.72
2023-02-28T06:24:29.853Z,103066.13
2023-02-28T06:29:36.750Z,103058.34
2023-02-28T06:34:40.789Z,103083.16
2023-02-28T06:39:45.101Z,103072.03
2023-02-28T06:44:50.492Z,103088.19
2023-02-28T06:49:54.813Z,103071.00
2023-02-28T06:55:02.097Z,103073.50
2023-02-28T07:00:10.986Z,103087.19
2023-02-28T07:05:15.544Z,103097.44
2023-02-28T07:10:20.518Z,103085.25
2023-02-28T07:15:26.025Z,103083.53
2023-02-28T07:20:30.069Z,103106.59
2023-02-28T07:25:34.207Z,103094.53
2023-02-28T07:30:39.716Z,103108.09
2023-02-28T07:35:44.046Z,103109.66
2023-02-28T07:40:48.113Z,103099.13
2023-02-28T07:45:53.481Z,103104.94
2023-02-28T07:50:58.014Z,103101.13
2023-02-28T07:56:04.572Z,103105.16
2023-02-28T08:01:11.896Z,103108.34
2023-02-28T08:06:20.149Z,103110.59
2023-02-28T08:11:24.509Z,103111.16
2023-02-28T08:16:29.854Z,103109.31
2023-02-28T08:21:34.128Z,103110.78
2023-02-28T08:26:38.119Z,103110.75
2023-02-28T08:31:44.112Z,103105.94
2023-02-28T08:36:48.196Z,103102.88
2023-02-28T08:42:02.108Z,103104.97
2023-02-28T08:47:11.186Z,103095.03
2023-02-28T08:52:15.179Z,103094.63
2023-02-28T08:57:19.214Z,103093.59
2023-02-28T09:02:24.581Z,103082.53
2023-02-28T09:07:28.621Z,103069.41
2023-02-28T09:12:36.710Z,103056.22
2023-02-28T09:17:42.833Z,103048.28
2023-02-28T09:22:47.552Z,103044.78
2023-02-28T09:27:51.551Z,103016.03
2023-02-28T09:32:57.170Z,103021.56
2023-02-28T09:38:04.080Z,103009.34
2023-02-28T09:43:12.577Z,103014.75
2023-02-28T09:48:24.068Z,103001.56
2023-02-28T09:53:34.932Z,103003.09
2023-02-28T09:58:47.160Z,103004.13
2023-02-28T10:03:59.602Z,103002.72
2023-02-28T10:09:15.197Z,103002.38
2023-02-28T10:38:43.558Z,102946.59
2023-02-28T10:43:48.071Z,102950.06
2023-02-28T10:49:04.500Z,102946.84
2023-02-28T10:54:18.668Z,102950.44
2023-02-28T10:59:31.279Z,102933.00
2023-02-28T11:04:40.500Z,102933.31
2023-02-28T11:09:50.414Z,102930.78
2023-02-28T11:14:57.681Z,102939.91
2023-02-28T11:20:08.209Z,102925.13
2023-02-28T11:25:24.722Z,102917.19
2023-02-28T11:30:37.256Z,102926.00
2023-02-28T11:35:41.969Z,102909.53
2023-02-28T11:41:06.487Z,102914.00
2023-02-28T11:46:28.397Z,102925.56
2023-02-28T11:51:38.574Z,102903.00
2023-02-28T11:56:49.723Z,102899.44
2023-02-28T12:02:26.013Z,102888.44
2023-02-28T12:07:36.294Z,102886.66
2023-02-28T12:12:52.974Z,102883.72
2023-02-28T12:18:27.571Z,102875.03
2023-02-28T12:23:58.844Z,102865.84
2023-02-28T12:29:15.201Z,102854.66
2023-02-28T12:34:25.130Z,102855.53
2023-02-28T12:39:41.731Z,102859.47
2023-02-28T12:45:00.246Z,102842.69
2023-02-28T12:50:12.850Z,102835.66
2023-02-28T12:55:26.408Z,102840.69
2023-02-28T13:00:38.575Z,102845.16
2023-02-28T13:06:28.760Z,102837.53
2023-02-28T13:11:40.971Z,102826.78
2023-02-28T13:17:02.200Z,102839.81
2023-02-28T13:22:07.355Z,102830.25
2023-02-28T13:27:41.647Z,102828.19
2023-02-28T13:32:49.432Z,102828.88
2023-02-28T13:38:37.581Z,102840.72
2023-02-28T13:44:06.061Z,102843.84
2023-02-28T13:49:29.131Z,102829.72
2023-02-28T13:54:52.477Z,102832.91
2023-02-28T14:00:22.517Z,102840.91
2023-02-28T14:05:30.933Z,102844.34
2023-02-28T14:10:41.542Z,102839.47
2023-02-28T14:16:00.528Z,102840.69
2023-02-28T14:21:16.911Z,102840.91
2023-02-28T14:27:00.128Z,102834.72
2023-02-28T14:32:17.539Z,102843.84
2023-02-28T14:37:31.144Z,102836.88
2023-02-28T14:42:42.711Z,102844.97
2023-02-28T14:47:46.937Z,102841.03
2023-02-28T14:52:56.047Z,102836.28
2023-02-28T14:58:03.895Z,102837.69
2023-02-28T15:03:22.870Z,102848.56
2023-02-28T15:08:30.485Z,102848.81
2023-02-28T15:13:42.433Z,102837.84
2023-02-28T15:18:51.742Z,102842.25
2023-02-28T15:24:02.925Z,102846.59
2023-02-28T15:29:09.369Z,102849.34
2023-02-28T15:34:23.289Z,102849.53
2023-02-28T15:39:31.297Z,102851.59
2023-02-28T15:44:38.114Z,102853.91
2023-02-28T15:49:51.090Z,102848.91
2023-02-28T15:54:56.714Z,102855.25
2023-02-28T16:00:06.705Z,102850.91
2023-02-28T16:05:29.159Z,102855.31
2023-02-28T16:10:34.621Z,102852.44
2023-02-28T16:15:44.412Z,102856.78
2023-02-28T16:20:48.550Z,102846.78
2023-02-28T16:25:54.464Z,102861.06
2023-02-28T16:30:58.657Z,102859.38
2023-02-28T16:36:04.064Z,102859.94
2023-02-28T16:41:17.593Z,102868.53
2023-02-28T16:46:22.880Z,102863.75
2023-02-28T16:51:27.119Z,102889.06
2023-02-28T16:56:32.902Z,102885.44
2023-02-28T17:01:37.113Z,102895.34
2023-02-28T17:06:41.386Z,102892.84
2023-02-28T17:11:47.275Z,102893.13
2023-02-28T17:16:51.528Z,102903.84
2023-02-28T17:21:55.737Z,102911.06
2023-02-28T17:27:02.381Z,102911.38
2023-02-28T17:32:17.237Z,102919.41
2023-02-28T17:37:21.796Z,102939.66
2023-02-28T17:42:27.321Z,102940.88
2023-02-28T17:47:31.345Z,102954.75
2023-02-28T17:52:37.759Z,102949.94
2023-02-28T17:57:43.817Z,102968.03
2023-02-28T18:02:47.916Z,102973.31
2023-02-28T18:07:52.106Z,102959.97
2023-02-28T18:12:57.656Z,102970.06
2023-02-28T18:18:03.342Z,102976.03
2023-02-28T18:23:07.489Z,102970.44
2023-02-28T18:28:12.873Z,102979.19
2023-02-28T18:33:17.018Z,102973.53
2023-02-28T18:38:22.615Z,102975.75
2023-02-28T18:43:28.296Z,102986.31
2023-02-28T18:48:32.308Z,102980.56
2023-02-28T18:53:37.162Z,102978.19
2023-02-28T18:58:43.056Z,102981.84
2023-02-28T19:03:47.440Z,102978.47
2023-02-28T19:08:55.503Z,102987.25
2023-02-28T19:14:01.307Z,102983.19
2023-02-28T19:19:05.694Z,102996.09
2023-02-28T19:24:09.837Z,102994.66
2023-02-28T19:29:15.639Z,102996.53
2023-02-28T19:34:19.749Z,102994.09
2023-02-28T19:39:24.053Z,102995.16
2023-02-28T19:44:34.127Z,102998.72
2023-02-28T19:49:39.028Z,103019.69
2023-02-28T19:54:43.853Z,103008.63
2023-02-28T19:59:51.134Z,103003.56
2023-02-28T20:04:59.943Z,103014.06
2023-02-28T20:10:06.198Z,103016.91
2023-02-28T20:15:12.871Z,103016.22
2023-02-28T20:20:17.761Z,103018.03
2023-02-28T20:25:22.820Z,103019.22
2023-02-28T20:30:28.962Z,103017.00
2023-02-28T20:35:33.855Z,103031.81
2023-02-28T20:40:39.447Z,103021.69
2023-02-28T20:45:54.279Z,103017.59
2023-02-28T20:51:00.143Z,103012.50
2023-02-28T20:56:07.128Z,103010.16
2023-02-28T21:01:16.891Z,103009.47
2023-02-28T21:06:24.120Z,103013.06
2023-02-28T21:11:32.063Z,103014.91
2023-02-28T21:16:38.226Z,103031.44
2023-02-28T21:21:44.918Z,103029.00
2023-02-28T21:26:49.512Z,103043.72
2023-02-28T21:31:57.796Z,103028.38
2023-02-28T21:37:02.488Z,103037.97
2023-02-28T21:42:06.662Z,103042.34
2023-02-28T21:47:12.297Z,103036.41
2023-02-28T21:52:16.505Z,103026.22
2023-02-28T21:57:20.801Z,103022.03
2023-02-28T22:02:28.460Z,103026.38
2023-02-28T22:07:34.073Z,103024.81
2023-02-28T22:12:38.103Z,103015.47
2023-02-28T22:17:44.084Z,103022.50
2023-02-28T22:22:48.356Z,103028.47
2023-02-28T22:27:52.465Z,103044.00
2023-02-28T22:32:57.982Z,103049.25
2023-02-28T22:38:02.115Z,103049.34
2023-02-28T22:43:06.670Z,103035.81
2023-02-28T22:48:12.148Z,103059.09
2023-02-28T22:53:16.166Z,103049.72
2023-02-28T22:58:20.330Z,103057.59
2023-02-28T23:03:27.010Z,103061.06
2023-02-28T23:08:31.133Z,103059.38
2023-02-28T23:13:35.214Z,103049.28
2023-02-28T23:18:40.706Z,103062.31
2023-02-28T23:23:44.753Z,103068.28
2023-02-28T23:28:49.227Z,103054.69
2023-02-28T23:33:54.744Z,103057.38
2023-02-28T23:38:58.984Z,103052.28
2023-02-28T23:44:04.165Z,103047.28
2023-02-28T23:49:09.555Z,103049.06
2023-02-28T23:54:13.954Z,103053.41
2023-02-28T23:59:18.064Z,103056.91
